createdAt,value
2023-05-18T00:01:00.013Z,7.20
2023-05-18T00:07:10.172Z,7.10
2023-05-18T00:13:21.910Z,7.00
2023-05-18T00:16:26.194Z,7.00
2023-05-18T00:19:15.424Z,7.00
2023-05-18T00:25:25.618Z,7.00
2023-05-18T00:28:48.953Z,7.00
2023-05-18T00:35:00.951Z,7.00
2023-05-18T00:41:11.445Z,6.90
2023-05-18T00:44:17.969Z,6.80
2023-05-18T00:50:29.413Z,6.80
2023-05-18T00:56:42.399Z,6.70
2023-05-18T01:02:53.452Z,6.50
2023-05-18T01:09:07.309Z,6.50
2023-05-18T01:15:20.799Z,6.50
2023-05-18T01:18:44.184Z,6.50
2023-05-18T01:21:26.093Z,6.60
2023-05-18T01:27:42.837Z,6.60
2023-05-18T01:33:53.554Z,6.50
2023-05-18T01:40:06.181Z,6.50
2023-05-18T01:43:01.730Z,6.40
2023-05-18T01:46:25.309Z,6.30
2023-05-18T01:52:39.996Z,6.10
2023-05-18T01:58:51.822Z,5.90
2023-05-18T02:02:15.280Z,5.80
2023-05-18T02:08:27.477Z,5.70
2023-05-18T02:14:53.628Z,5.70
2023-05-18T02:18:23.679Z,5.60
2023-05-18T02:21:53.645Z,5.60
2023-05-18T02:28:12.669Z,5.60
2023-05-18T02:31:42.729Z,5.60
2023-05-18T02:35:12.671Z,5.70
2023-05-18T02:38:42.653Z,5.70
2023-05-18T02:42:12.649Z,5.80
2023-05-18T02:45:42.697Z,5.90
2023-05-18T02:52:07.728Z,6.00
2023-05-18T02:55:27.713Z,6.10
2023-05-18T03:01:47.896Z,6.20
2023-05-18T03:08:06.682Z,6.40
2023-05-18T03:11:36.666Z,6.50
2023-05-18T03:15:06.608Z,6.50
2023-05-18T03:18:36.590Z,6.60
2023-05-18T03:22:06.539Z,6.70
2023-05-18T03:28:24.610Z,6.80
2023-05-18T03:31:54.681Z,6.90
2023-05-18T03:35:24.697Z,7.00
2023-05-18T03:38:54.634Z,7.10
2023-05-18T03:45:13.616Z,7.30
2023-05-18T03:48:43.601Z,7.40
2023-05-18T03:51:28.606Z,7.50
2023-05-18T03:54:39.603Z,7.50
2023-05-18T03:58:09.578Z,7.60
2023-05-18T04:01:39.595Z,7.70
2023-05-18T04:05:09.600Z,7.80
2023-05-18T04:11:28.593Z,8.00
2023-05-18T04:14:58.780Z,8.20
2023-05-18T04:21:15.568Z,8.30
2023-05-18T04:24:45.696Z,8.50
2023-05-18T04:28:15.674Z,8.50
2023-05-18T04:34:33.660Z,8.70
2023-05-18T04:38:03.639Z,8.80
2023-05-18T04:44:24.677Z,9.00
2023-05-18T04:47:54.846Z,9.00
2023-05-18T04:51:24.649Z,9.20
2023-05-18T04:54:43.627Z,9.30
2023-05-18T05:01:01.674Z,9.80
2023-05-18T05:04:31.671Z,9.80
2023-05-18T05:10:47.715Z,10.10
2023-05-18T05:14:17.696Z,10.40
2023-05-18T05:17:47.710Z,10.60
2023-05-18T05:21:17.709Z,10.70
2023-05-18T05:27:35.745Z,11.20
2023-05-18T05:31:05.674Z,11.20
2023-05-18T05:34:35.702Z,11.20
2023-05-18T05:40:52.734Z,11.70
2023-05-18T05:44:23.909Z,11.70
2023-05-18T05:47:54.769Z,11.80
2023-05-18T05:51:24.727Z,11.80
2023-05-18T05:54:36.136Z,12.00
2023-05-18T05:58:05.682Z,12.10
2023-05-18T06:05:15.725Z,12.20
2023-05-18T06:11:34.732Z,12.10
2023-05-18T06:15:04.713Z,12.10
2023-05-18T06:18:34.765Z,12.30
2023-05-18T06:22:04.944Z,12.30
2023-05-18T06:25:34.703Z,12.40
2023-05-18T06:29:04.656Z,12.60
2023-05-18T06:32:34.729Z,12.80
2023-05-18T06:38:52.765Z,13.00
2023-05-18T06:45:12.684Z,12.90
2023-05-18T06:51:29.704Z,13.20
2023-05-18T06:54:41.755Z,13.00
2023-05-18T07:00:58.722Z,13.20
2023-05-18T07:04:28.743Z,12.80
2023-05-18T07:10:46.747Z,13.00
2023-05-18T07:14:16.727Z,12.80
2023-05-18T07:20:33.837Z,13.20
2023-05-18T07:26:51.782Z,13.50
2023-05-18T07:30:21.793Z,13.80
2023-05-18T07:36:32.109Z,14.00
2023-05-18T07:43:36.500Z,13.80
2023-05-18T07:49:47.887Z,14.50
2023-05-18T07:55:58.341Z,14.90
2023-05-18T08:02:08.570Z,15.10
2023-05-18T08:08:20.855Z,14.70
2023-05-18T08:14:30.855Z,15.00
2023-05-18T08:17:21.685Z,15.20
2023-05-18T08:23:33.138Z,15.30
2023-05-18T08:29:43.187Z,15.40
2023-05-18T08:35:53.221Z,15.50
2023-05-18T08:42:09.125Z,15.90
2023-05-18T08:45:32.812Z,16.10
2023-05-18T08:55:25.974Z,16.20
2023-05-18T09:08:59.412Z,16.40
2023-05-18T09:15:11.784Z,16.40
2023-05-18T09:21:22.388Z,16.10
2023-05-18T09:27:33.960Z,16.40
2023-05-18T09:33:46.532Z,17.00
2023-05-18T09:40:05.266Z,16.90
2023-05-18T09:46:25.315Z,17.40
2023-05-18T09:52:43.267Z,17.60
2023-05-18T10:02:41.806Z,18.50
2023-05-18T10:08:51.799Z,18.20
2023-05-18T10:15:01.791Z,18.40
2023-05-18T10:21:16.640Z,17.90
2023-05-18T10:27:30.779Z,18.20
2023-05-18T10:30:54.443Z,18.70
2023-05-18T10:37:11.038Z,18.80
2023-05-18T10:43:24.098Z,18.40
2023-05-18T10:49:35.682Z,18.90
2023-05-18T10:52:59.733Z,19.20
2023-05-18T11:02:52.566Z,19.40
2023-05-18T11:06:16.290Z,19.30
2023-05-18T11:12:26.806Z,19.40
2023-05-18T11:18:45.690Z,19.20
2023-05-18T11:24:55.767Z,19.30
2023-05-18T11:31:06.248Z,19.00
2023-05-18T11:34:30.538Z,19.30
2023-05-18T11:40:49.517Z,19.30
2023-05-18T11:47:10.898Z,19.60
2023-05-18T11:50:34.496Z,19.30
2023-05-18T11:56:46.521Z,19.30
2023-05-18T11:59:16.405Z,19.10
2023-05-18T12:05:26.611Z,19.60
2023-05-18T12:11:36.840Z,20.00
2023-05-18T12:17:49.908Z,19.50
2023-05-18T12:21:13.663Z,19.70
2023-05-18T12:27:27.011Z,19.60
2023-05-18T12:33:38.408Z,19.70
2023-05-18T12:39:54.611Z,19.70
2023-05-18T12:46:05.280Z,19.50
2023-05-18T12:52:17.713Z,19.30
2023-05-18T12:55:41.260Z,19.20
2023-05-18T13:02:16.389Z,19.50
2023-05-18T13:08:28.295Z,19.80
2023-05-18T13:14:40.110Z,19.20
2023-05-18T13:21:44.595Z,19.80
2023-05-18T13:27:56.561Z,19.60
2023-05-18T13:31:02.857Z,19.60
2023-05-18T13:37:14.890Z,19.70
2023-05-18T13:40:38.906Z,19.60
2023-05-18T13:46:50.422Z,19.90
2023-05-18T13:53:00.687Z,19.60
2023-05-18T14:06:33.766Z,20.30
2023-05-18T14:12:44.632Z,20.60
2023-05-18T14:16:08.233Z,19.70
2023-05-18T14:22:20.004Z,19.50
2023-05-18T14:28:30.614Z,19.10
2023-05-18T14:34:40.298Z,18.80
2023-05-18T14:38:03.917Z,18.70
2023-05-18T14:44:15.277Z,18.50
2023-05-18T14:50:25.282Z,18.50
2023-05-18T14:56:36.000Z,18.70
2023-05-18T14:59:59.629Z,18.40
2023-05-18T15:07:10.862Z,17.70
2023-05-18T15:13:22.242Z,17.70
2023-05-18T15:19:31.807Z,17.60
2023-05-18T15:22:55.236Z,17.60
2023-05-18T15:25:26.327Z,17.70
2023-05-18T15:28:49.506Z,17.60
2023-05-18T15:32:04.490Z,17.40
2023-05-18T15:38:23.866Z,17.40
2023-05-18T15:44:40.923Z,17.30
2023-05-18T15:51:00.047Z,17.10
2023-05-18T15:54:25.986Z,16.90
2023-05-18T16:00:55.225Z,16.60
2023-05-18T16:07:06.626Z,16.70
2023-05-18T16:13:16.462Z,16.80
2023-05-18T16:19:26.379Z,16.70
2023-05-18T16:25:37.800Z,16.60
2023-05-18T16:29:01.527Z,16.50
2023-05-18T16:35:11.919Z,16.40
2023-05-18T16:41:23.538Z,16.20
2023-05-18T16:44:47.394Z,16.30
2023-05-18T16:50:57.552Z,16.10
2023-05-18T16:57:13.372Z,16.00
2023-05-18T17:00:36.654Z,15.90
2023-05-18T17:06:47.080Z,15.70
2023-05-18T17:12:58.344Z,15.50
2023-05-18T17:19:08.388Z,15.20
2023-05-18T17:25:18.419Z,15.20
2023-05-18T17:31:30.761Z,15.10
2023-05-18T17:34:54.361Z,15.00
2023-05-18T17:41:04.582Z,14.90
2023-05-18T17:47:15.790Z,14.80
2023-05-18T17:53:25.696Z,14.60
2023-05-18T17:59:37.253Z,14.50
2023-05-18T18:05:49.111Z,14.30
2023-05-18T18:08:18.469Z,14.10
2023-05-18T18:14:28.843Z,14.00
2023-05-18T18:17:24.264Z,13.90
2023-05-18T18:20:11.353Z,13.80
2023-05-18T18:26:23.809Z,13.70
2023-05-18T18:32:33.876Z,13.50
2023-05-18T18:38:44.956Z,13.30
2023-05-18T18:41:42.930Z,13.20
2023-05-18T18:48:39.606Z,13.10
2023-05-18T18:54:51.120Z,12.90
2023-05-18T19:01:01.505Z,12.80
2023-05-18T19:07:11.964Z,12.80
2023-05-18T19:10:31.757Z,12.70
2023-05-18T19:16:43.581Z,12.60
2023-05-18T19:20:07.422Z,12.60
2023-05-18T19:23:22.710Z,12.50
2023-05-18T19:29:34.074Z,12.50
2023-05-18T19:35:45.141Z,12.50
2023-05-18T19:45:56.117Z,12.40
2023-05-18T19:49:19.461Z,12.40
2023-05-18T19:59:11.699Z,12.30
2023-05-18T20:02:35.468Z,12.30
2023-05-18T20:12:28.513Z,12.20
2023-05-18T20:15:52.142Z,12.20
2023-05-18T20:22:56.191Z,12.10
2023-05-18T20:25:56.923Z,12.10
2023-05-18T20:35:46.687Z,12.10
2023-05-18T20:41:58.977Z,12.10
2023-05-18T20:45:22.976Z,12.10
2023-05-18T20:48:05.093Z,12.00
2023-05-18T20:51:28.606Z,12.00
2023-05-18T20:57:40.407Z,12.00
2023-05-18T21:01:03.483Z,12.00
2023-05-18T21:03:42.831Z,12.00
2023-05-18T21:07:06.794Z,12.00
2023-05-18T21:13:18.336Z,11.90
2023-05-18T21:16:41.898Z,11.90
2023-05-18T21:22:52.347Z,11.90
2023-05-18T21:26:15.719Z,11.90
2023-05-18T21:28:47.461Z,11.90
2023-05-18T21:31:24.857Z,11.80
2023-05-18T21:34:49.046Z,11.80
2023-05-18T21:41:00.284Z,11.80
2023-05-18T21:44:13.429Z,11.80
2023-05-18T21:50:24.936Z,11.80
2023-05-18T21:53:48.793Z,11.80
2023-05-18T21:59:59.271Z,11.80
2023-05-18T22:06:48.806Z,11.70
2023-05-18T22:13:01.067Z,11.70
2023-05-18T22:22:51.858Z,11.70
2023-05-18T22:25:43.514Z,11.70
2023-05-18T22:32:47.655Z,11.70
2023-05-18T22:38:59.573Z,11.70
2023-05-18T22:45:11.820Z,11.70
2023-05-18T22:48:34.931Z,11.70
2023-05-18T22:51:48.627Z,11.70
2023-05-18T22:58:00.181Z,11.60
2023-05-18T23:04:10.220Z,11.60
2023-05-18T23:14:03.493Z,11.60
2023-05-18T23:20:14.642Z,11.60
2023-05-18T23:26:24.681Z,11.60
2023-05-18T23:29:14.389Z,11.60
2023-05-18T23:35:24.565Z,11.60
2023-05-18T23:41:36.029Z,11.50
2023-05-18T23:44:20.786Z,11.50
2023-05-18T23:50:31.501Z,11.40
2023-05-18T23:53:55.451Z,11.40
